Latest Weather Observations for Coolangatta

IDN60801

Issued at 6:32 pm EST Monday 10 August 2020 (issued every 10 minutes, with the page automatically refreshed every 10 minutes)

About weather observations | Map of weather stations | Latest weather observations for NSW | Other Formats
Station Details ID: 040717 Name: COOLANGATTA Lat: -28.17 Lon: 153.51 Height: 4.0 m
Data from the previous 72 hours. | See also: Recent months at Coolangatta

Observations at Coolangatta are collected in the Queensland time zone, which does not include daylight savings during the summer period. Therefore 'Rain since 9am' totals and other values are based on the Queensland time zone.

Date/Time
EST
Temp
°C
App
Temp
°C
Dew
Point
°C
Rel
Hum
%
Delta-T
°C
Wind Press
QNH
hPa
Press
MSL
hPa
Rain since
9am
mm
Dir  Spd
km/h
Gust
km/h
Spd
kts
Gust
kts
10/06:30pm 16.9 14.9 6.1 49 5.3 SSW 6 11 3 6 1012.6 1012.6 0.0
10/06:00pm 17.3 14.7 5.9 47 5.6 SSW 9 13 5 7 1011.9 1011.9 0.0
10/05:30pm 17.5 14.8 5.8 46 5.7 SW 9 15 5 8 1011.2 1011.2 0.0
10/05:00pm 17.9 15.2 5.5 44 6.0 WSW 9 13 5 7 1011.0 1011.0 0.0
10/04:30pm 18.1 15.3 5.0 42 6.3 WSW 9 15 5 8 1010.4 1010.4 0.0
10/04:00pm 18.5 14.3 3.6 37 7.0 W 15 24 8 13 1010.1 1010.1 0.0
10/03:30pm 19.2 14.7 4.2 37 7.2 SW 17 35 9 19 1009.5 1009.5 0.0
10/03:00pm 19.2 15.1 4.2 37 7.2 SW 15 22 8 12 1009.3 1009.3 0.0
10/02:30pm 19.1 15.1 4.8 39 6.9 SW 15 22 8 12 1009.2 1009.2 0.0
10/02:00pm 18.3 13.1 3.8 38 6.8 SW 20 30 11 16 1009.3 1009.3 0.0
10/01:30pm 18.1 13.1 3.6 38 6.8 SW 19 26 10 14 1009.4 1009.4 0.0
10/01:00pm 17.6 12.7 4.2 41 6.3 SW 19 28 10 15 1009.4 1009.4 0.0
10/12:30pm 17.6 13.2 4.6 42 6.2 SW 17 28 9 15 1009.7 1009.7 0.0
10/12:00pm 17.0 12.5 4.3 43 6.0 WSW 17 26 9 14 1010.2 1010.2 0.0
10/11:30am 15.8 12.8 4.2 46 5.4 WSW 9 15 5 8 1010.5 1010.5 0.0
10/11:00am 15.6 12.7 4.9 49 5.0 W 9 13 5 7 1010.6 1010.6 0.0
10/10:30am 15.6 11.8 4.0 46 5.4 WSW 13 22 7 12 1010.9 1010.9 0.0
10/10:00am 15.7 11.9 4.1 46 5.4 WSW 13 20 7 11 1011.0 1011.0 0.0
10/09:30am 15.2 12.2 4.0 47 5.2 SW 9 15 5 8 1011.2 1011.2 0.0
10/09:00am 15.7 12.4 4.7 48 5.2 WSW 11 17 6 9 1011.3 1011.3 0.0
10/08:30am 14.7 11.8 4.7 51 4.7 NW 9 13 5 7 1011.1 1011.1 0.0
10/08:00am 13.7 10.3 6.1 60 3.6 NNW 13 17 7 9 1010.9 1010.9 0.0
10/07:30am 10.9 9.1 7.2 78 1.8 W 6 7 3 4 1011.0 1011.0 0.0
10/07:00am 8.3 6.1 6.3 87 0.9 W 7 9 4 5 1010.9 1010.9 0.0
10/06:30am 8.4 6.2 6.2 86 1.0 WSW 7 9 4 5 1011.0 1011.0 0.0
10/06:00am 8.6 5.3 6.6 87 0.9 WSW 13 15 7 8 1010.7 1010.7 0.0
10/05:30am 9.0 5.9 5.4 78 1.6 WNW 11 13 6 7 1010.4 1010.4 0.0
10/05:00am 8.9 5.4 5.3 78 1.6 NW 13 15 7 8 1010.0 1010.0 0.0
10/04:30am 9.4 6.6 5.2 75 1.9 NW 9 13 5 7 1010.1 1010.1 0.0
10/04:00am 9.8 6.2 5.0 72 2.2 NW 13 17 7 9 1010.0 1010.0 0.0
10/03:30am 10.2 6.4 5.6 73 2.1 NW 15 19 8 10 1010.2 1010.2 0.0
10/03:00am 9.1 6.7 5.3 77 1.7 WSW 7 9 4 5 1010.3 1010.3 0.0
10/02:30am 10.2 7.4 5.2 71 2.3 W 9 15 5 8 1010.4 1010.4 0.0
10/02:00am 11.7 7.7 4.7 62 3.2 NNW 15 20 8 11 1010.5 1010.5 0.0
10/01:30am 11.4 7.1 5.1 65 2.9 NNW 17 22 9 12 1010.8 1010.8 0.0
10/01:00am 10.8 7.2 4.9 67 2.7 NW 13 15 7 8 1011.4 1011.4 0.0
10/12:30am 8.9 6.6 5.6 80 1.5 W 7 13 4 7 1011.6 1011.6 0.0
10/12:00am 8.0 5.4 6.1 88 0.9 WSW 9 11 5 6 1011.8 1011.8 0.0
 
Date/Time
EST
Temp
°C
App
Temp
°C
Dew
Point
°C
Rel
Hum
%
Delta-T
°C
Wind Press
QNH
hPa
Press
MSL
hPa
Rain since
9am
mm
Dir  Spd
km/h
Gust
km/h
Spd
kts
Gust
kts
09/11:30pm 8.1 5.0 5.7 85 1.1 WSW 11 13 6 7 1012.1 1012.1 0.0
09/11:00pm 8.3 6.0 5.9 85 1.1 WSW 7 15 4 8 1012.3 1012.3 0.0
09/10:30pm 8.4 6.3 6.5 88 0.9 WSW 7 13 4 7 1012.7 1012.7 0.0
09/10:00pm 7.8 5.4 5.3 84 1.1 WSW 7 9 4 5 1012.7 1012.7 0.0
09/09:30pm 8.7 6.2 6.5 86 1.0 WSW 9 11 5 6 1012.8 1012.8 0.0
09/09:00pm 9.0 7.0 6.1 82 1.3 WSW 6 9 3 5 1012.6 1012.6 0.0
09/08:30pm 9.3 7.2 5.7 78 1.6 WSW 6 9 3 5 1012.6 1012.6 0.0
09/08:00pm 9.9 7.4 6.4 79 1.6 WNW 9 13 5 7 1012.5 1012.5 0.0
09/07:30pm 10.7 8.4 4.6 66 2.7 NW 6 7 3 4 1012.3 1012.3 0.0
09/07:00pm 11.8 10.1 4.1 59 3.5 NW 2 9 1 5 1012.1 1012.1 0.0
09/06:30pm 12.2 9.3 4.4 59 3.5 NW 9 13 5 7 1011.8 1011.8 0.0
09/06:00pm 14.0 10.8 2.9 47 4.9 W 9 13 5 7 1011.5 1011.5 0.0
09/05:30pm 15.3 11.7 3.1 44 5.5 W 11 17 6 9 1011.0 1011.0 0.0
09/05:00pm 16.8 11.9 2.0 37 6.6 W 17 26 9 14 1010.4 1010.4 0.0
09/04:30pm 18.4 14.9 3.5 37 7.0 WNW 11 19 6 10 1010.1 1010.1 0.0
09/04:00pm 19.1 15.1 2.9 34 7.5 WNW 13 19 7 10 1009.7 1009.7 0.0
09/03:30pm 19.6 15.5 2.5 32 7.9 WSW 13 19 7 10 1009.7 1009.7 0.0
09/03:00pm 19.5 16.1 4.0 36 7.4 S 11 15 6 8 1009.8 1009.8 0.0
09/02:30pm 19.6 16.0 4.9 38 7.1 SSE 13 20 7 11 1010.1 1010.1 0.0
09/02:00pm 19.9 16.9 4.0 35 7.6 WNW 9 26 5 14 1010.4 1010.4 0.0
09/01:30pm 19.3 15.2 4.3 37 7.2 W 15 20 8 11 1010.6 1010.6 0.0
09/01:00pm 18.6 15.3 2.4 34 7.4 SW 9 17 5 9 1010.9 1010.9 0.0
09/12:30pm 18.7 16.1 3.3 36 7.2 SW 6 13 3 7 1011.3 1011.3 0.0
09/12:00pm 18.4 14.1 3.5 37 7.0 NE 15 20 8 11 1011.9 1011.9 0.0
09/11:30am 17.8 13.4 4.7 42 6.2 NE 17 20 9 11 1012.5 1012.5 0.0
09/11:00am 17.8 13.8 5.1 43 6.1 NE 15 20 8 11 1013.1 1013.1 0.0
09/10:30am 17.4 14.8 4.0 41 6.3 NNW 7 13 4 7 1013.6 1013.6 0.0
09/10:00am 17.5 14.7 5.1 44 5.9 W 9 20 5 11 1013.9 1013.9 0.0
09/09:30am 16.4 12.4 2.8 40 6.2 W 13 15 7 8 1014.0 1014.0 0.0
09/09:00am 15.9 12.2 2.3 40 6.1 WSW 11 15 6 8 1013.9 1013.9 -
09/08:30am 15.4 12.4 2.2 41 5.9 SSW 7 13 4 7 1013.9 1013.9 -
09/08:00am 14.7 11.0 2.6 44 5.4 W 11 20 6 11 1013.6 1013.6 -
09/07:30am 13.4 9.2 3.8 52 4.3 WNW 15 22 8 12 1013.4 1013.4 -
09/07:00am 12.9 7.9 3.6 53 4.2 W 19 28 10 15 1013.4 1013.4 -
09/06:30am 11.0 7.3 4.5 64 2.9 W 13 20 7 11 1013.3 1013.3 -
09/06:00am 10.9 8.0 4.6 65 2.8 W 9 17 5 9 1012.9 1012.9 -
09/05:30am 7.3 4.9 5.1 86 1.0 WSW 7 15 4 8 1012.4 1012.4 -
09/05:00am 7.3 6.2 5.1 86 1.0 CALM 0 0 0 0 1012.4 1012.4 -
09/04:30am 8.2 6.8 5.5 83 1.2 WSW 2 7 1 4 1012.0 1012.0 -
09/04:00am 9.5 8.4 4.9 73 2.1 CALM 0 0 0 0 1011.9 1011.9 -
09/03:30am 10.3 8.8 4.9 69 2.4 W 2 6 1 3 1011.8 1011.8 -
09/03:00am 12.1 9.0 5.5 64 3.1 W 11 15 6 8 1011.8 1011.8 0.0
09/02:30am 13.3 10.2 5.7 60 3.6 SW 11 17 6 9 1011.8 1011.8 -
09/02:00am 12.5 10.2 5.7 63 3.2 SSW 7 9 4 5 1011.8 1011.8 -
09/01:30am 12.2 9.5 5.8 65 3.0 SSW 9 13 5 7 1012.1 1012.1 -
09/01:00am 13.3 10.2 5.7 60 3.6 W 11 19 6 10 1012.1 1012.1 -
09/12:30am 11.2 9.0 6.3 72 2.3 WSW 7 9 4 5 1012.5 1012.5 -
09/12:00am 13.3 10.5 6.9 65 3.1 WSW 11 15 6 8 1012.6 1012.6 -
 
Date/Time
EST
Temp
°C
App
Temp
°C
Dew
Point
°C
Rel
Hum
%
Delta-T
°C
Wind Press
QNH
hPa
Press
MSL
hPa
Rain since
9am
mm
Dir  Spd
km/h
Gust
km/h
Spd
kts
Gust
kts
08/11:30pm 14.3 11.9 6.9 61 3.6 SSW 9 13 5 7 1012.7 1012.7 -
08/11:00pm 15.1 11.9 6.9 58 4.0 W 13 17 7 9 1012.7 1012.7 -
08/10:30pm 15.4 13.2 7.7 60 3.8 WSW 9 13 5 7 1013.1 1013.1 -
08/10:00pm 16.5 14.8 7.7 56 4.4 SW 6 11 3 6 1013.1 1013.1 -
08/09:30pm 17.7 15.2 8.0 53 4.9 SW 11 20 6 11 1013.1 1013.1 -
08/09:00pm 18.5 14.1 7.3 48 5.7 W 20 28 11 15 1012.6 1012.6 -
08/08:30pm 18.6 14.3 7.7 49 5.5 WNW 20 32 11 17 1012.3 1012.3 -
08/08:00pm 18.9 15.1 7.7 48 5.7 W 17 26 9 14 1012.5 1012.5 -
08/07:30pm 18.5 15.3 8.5 52 5.2 NW 15 17 8 9 1012.3 1012.3 -
08/07:00pm 17.5 16.0 10.4 63 3.8 W 9 11 5 6 1012.4 1012.4 -
08/06:30pm 18.3 17.3 10.9 62 4.0 WSW 7 11 4 6 1012.1 1012.1 -
08/06:00pm 18.3 16.5 10.9 62 4.0 WNW 11 13 6 7 1012.1 1012.1 -
08/05:30pm 19.2 17.8 11.0 59 4.5 WNW 9 11 5 6 1011.5 1011.5 -
08/11:30am 21.7 20.2 16.4 72 3.2 NNE 19 28 10 15 1012.7 1012.7 0.0
08/11:00am 21.3 18.7 16.0 72 3.2 N 24 30 13 16 1013.1 1013.1 0.0
08/10:30am 21.5 20.1 15.6 69 3.5 NNW 17 24 9 13 1013.6 1013.6 0.0
08/10:00am 20.6 18.8 15.4 72 3.1 N 19 24 10 13 1013.7 1013.7 0.0
08/09:30am 19.9 18.6 16.7 82 1.9 N 19 24 10 13 1014.1 1014.1 0.0
08/09:00am 19.4 18.2 16.1 81 2.0 NNW 17 22 9 12 1014.4 1014.4 -
08/08:30am 18.9 18.0 16.9 88 1.2 NNW 17 22 9 12 1014.5 1014.5 -
08/08:00am 16.6 17.7 15.5 93 0.6 SE 4 7 2 4 1014.3 1014.3 -
08/07:30am 16.2 16.8 15.4 95 0.5 SE 6 7 3 4 1014.1 1014.1 -
08/07:00am 15.4 15.6 14.8 96 0.3 SE 7 11 4 6 1013.9 1013.9 -
08/06:33am 15.5 16.4 15.0 97 0.3 SSE 4 9 2 5 1013.6 1013.6 -
08/06:30am 15.4 16.6 14.9 97 0.3 SSE 2 9 1 5 1013.6 1013.6 -
08/06:00am 15.4 15.9 14.9 97 0.3 SSE 6 7 3 4 1013.7 1013.7 -
08/05:53am 15.4 15.9 14.9 97 0.3 SSE 6 7 3 4 1013.5 1013.5 -
08/05:30am 15.2 15.4 14.7 97 0.3 S 7 11 4 6 1013.4 1013.4 -
08/05:00am 15.4 15.3 14.9 97 0.3 SSE 9 11 5 6 1013.3 1013.3 -
08/04:59am 15.5 15.4 15.0 97 0.3 SSE 9 11 5 6 1013.3 1013.3 -
08/04:30am 15.6 16.1 15.1 97 0.3 SSE 6 9 3 5 1013.4 1013.4 -
08/04:00am 15.5 15.8 15.0 97 0.3 SSE 7 9 4 5 1013.2 1013.2 -
08/03:30am 15.6 16.1 15.1 97 0.3 SSE 6 7 3 4 1013.3 1013.3 -
08/03:07am 15.6 15.6 15.1 97 0.3 SSE 9 11 5 6 1013.5 1013.5 -
08/03:00am 15.6 15.6 15.1 97 0.3 SSE 9 11 5 6 1013.4 1013.4 4.0
08/02:55am 15.6 15.6 15.1 97 0.3 SSE 9 11 5 6 1013.6 1013.6 -
08/02:30am 15.5 15.4 15.0 97 0.3 SSE 9 9 5 5 1013.7 1013.7 -
08/02:28am 15.5 15.8 15.0 97 0.3 SSE 7 9 4 5 1013.6 1013.6 -
08/02:19am 15.7 16.1 15.2 97 0.3 SSE 7 11 4 6 1013.6 1013.6 -
08/02:05am 15.8 17.5 15.3 97 0.3 CALM 0 0 0 0 1013.8 1013.8 -
08/02:00am 15.7 17.0 15.2 97 0.3 SSW 2 7 1 4 1013.8 1013.8 -
08/01:53am 15.8 16.4 15.3 97 0.3 SSW 6 7 3 4 1013.9 1013.9 -
08/01:52am 15.7 16.3 15.2 97 0.3 SSW 6 7 3 4 1014.0 1014.0 -
08/01:30am 15.7 16.6 15.2 97 0.3 SSW 4 7 2 4 1014.4 1014.4 -
08/01:20am 15.7 16.3 15.2 97 0.3 SSW 6 7 3 4 1014.5 1014.5 -
08/01:00am 15.6 16.1 15.1 97 0.3 S 6 9 3 5 1014.6 1014.6 -
08/12:53am 15.5 15.8 15.0 97 0.3 S 7 9 4 5 1014.6 1014.6 -
08/12:30am 15.4 15.3 14.9 97 0.3 SW 9 11 5 6 1014.8 1014.8 -
08/12:09am 15.4 16.6 14.9 97 0.3 S 2 9 1 5 1015.0 1015.0 -
08/12:00am 15.3 15.7 14.8 97 0.3 SSE 6 7 3 4 1015.0 1015.0 -
 
Date/Time
EST
Temp
°C
App
Temp
°C
Dew
Point
°C
Rel
Hum
%
Delta-T
°C
Wind Press
QNH
hPa
Press
MSL
hPa
Rain since
9am
mm
Dir  Spd
km/h
Gust
km/h
Spd
kts
Gust
kts
07/11:57pm 15.3 15.7 14.8 97 0.3 S 6 7 3 4 1015.1 1015.1 -
07/11:36pm 15.2 16.3 14.6 96 0.3 SSW 2 7 1 4 1015.5 1015.5 -
07/11:30pm 15.2 15.5 14.6 96 0.3 SSW 6 11 3 6 1015.5 1015.5 -
07/11:00pm 15.1 15.3 14.6 97 0.3 SSW 7 9 4 5 1015.5 1015.5 -
07/10:55pm 15.1 15.4 14.6 97 0.3 SSW 6 9 3 5 1015.6 1015.6 -
07/10:30pm 15.0 15.7 14.5 97 0.3 S 4 9 2 5 1015.9 1015.9 -
07/10:00pm 15.0 15.1 14.4 96 0.3 SSW 7 9 4 5 1016.3 1016.3 -
07/09:30pm 14.8 14.4 14.2 96 0.3 SSW 9 11 5 6 1016.5 1016.5 -
07/09:00pm 14.8 14.0 14.0 95 0.4 SSW 11 15 6 8 1016.5 1016.5 9.0
07/08:50pm 14.8 14.3 13.8 94 0.6 SSW 9 13 5 7 1016.7 1016.7 -
07/08:30pm 14.6 14.4 13.6 94 0.6 S 7 11 4 6 1016.8 1016.8 -
07/08:00pm 14.5 13.5 13.4 93 0.6 S 11 15 6 8 1016.9 1016.9 -
07/07:47pm 14.6 13.2 13.5 93 0.6 S 13 17 7 9 1016.7 1016.7 -
07/07:30pm 14.7 13.4 13.6 93 0.6 S 13 19 7 10 1016.8 1016.8 -
07/07:05pm 15.0 13.8 14.0 94 0.6 S 13 19 7 10 1017.1 1017.1 -
07/07:00pm 15.1 14.0 14.3 95 0.5 S 13 17 7 9 1017.2 1017.2 -
07/06:52pm 15.2 14.5 14.2 94 0.6 SSW 11 15 6 8 1017.5 1017.5 -

Other formats

Comma delimited format used in spreadsheet applications
http://www.bom.gov.au/fwo/IDN60801/IDN60801.94592.axf

JavaScript Object Notation format (JSON) in row-major order
http://www.bom.gov.au/fwo/IDN60801/IDN60801.94592.json

Data quality

Most of these data are generated automatically and are frequently updated. Quality checks on data are not normally performed. It is possible for incorrect values to appear. Refer to information at About Latest Weather Observations and please check the disclaimer before using these data.